createdAt,value
2022-07-31T00:00:49.857Z,10.4
2022-07-31T00:02:49.906Z,10.6
2022-07-31T00:04:50.268Z,10.6
2022-07-31T00:06:50.470Z,10.6
2022-07-31T00:08:50.459Z,10.1
2022-07-31T00:10:50.265Z,10.9
2022-07-31T00:12:50.139Z,10.9
2022-07-31T00:14:50.197Z,11.2
2022-07-31T00:16:50.490Z,11.2
2022-07-31T00:18:50.512Z,10.9
2022-07-31T00:20:49.568Z,10.6
2022-07-31T00:22:49.628Z,9.9
2022-07-31T00:24:49.860Z,9.9
2022-07-31T00:26:52.712Z,9.3
2022-07-31T00:28:49.797Z,10.4
2022-07-31T00:30:49.851Z,9.6
2022-07-31T00:32:51.797Z,9.9
2022-07-31T00:34:50.398Z,9.9
2022-07-31T00:36:49.603Z,10.0
2022-07-31T00:38:49.580Z,9.9
2022-07-31T00:40:49.748Z,9.4
2022-07-31T00:42:49.749Z,9.4
2022-07-31T00:44:49.656Z,9.4
2022-07-31T00:46:49.766Z,9.5
2022-07-31T00:48:49.805Z,9.5
2022-07-31T00:50:50.125Z,9.7
2022-07-31T00:52:50.087Z,9.5
2022-07-31T00:54:50.042Z,9.5
2022-07-31T00:56:50.398Z,9.9
2022-07-31T00:58:50.318Z,10.3
2022-07-31T01:00:50.298Z,10.4
2022-07-31T01:02:50.547Z,10.8
2022-07-31T01:04:50.015Z,10.8
2022-07-31T01:06:50.212Z,10.2
2022-07-31T01:08:50.167Z,10.2
2022-07-31T01:10:50.526Z,10.3
2022-07-31T01:12:54.058Z,9.8
2022-07-31T01:14:50.419Z,9.8
2022-07-31T01:16:49.589Z,10.1
2022-07-31T01:18:50.120Z,10.1
2022-07-31T01:20:49.868Z,9.6
2022-07-31T01:22:50.283Z,9.6
2022-07-31T01:24:50.191Z,9.9
2022-07-31T01:26:50.442Z,10.0
2022-07-31T01:28:50.376Z,9.4
2022-07-31T01:30:56.258Z,10.0
2022-07-31T01:32:50.548Z,10.0
2022-07-31T01:34:50.109Z,10.0
2022-07-31T01:36:50.375Z,9.5
2022-07-31T01:38:50.129Z,9.5
2022-07-31T01:40:49.870Z,9.6
2022-07-31T01:42:49.742Z,9.6
2022-07-31T01:44:49.953Z,9.7
2022-07-31T01:46:50.066Z,9.8
2022-07-31T01:48:50.222Z,9.0
2022-07-31T01:50:50.241Z,9.7
2022-07-31T01:52:50.106Z,9.7
2022-07-31T01:54:49.998Z,10.2
2022-07-31T01:56:50.208Z,10.8
2022-07-31T01:58:50.052Z,10.6
2022-07-31T02:00:49.965Z,10.5
2022-07-31T02:02:50.266Z,10.5
2022-07-31T02:04:49.765Z,10.7
2022-07-31T02:06:50.246Z,10.1
2022-07-31T02:08:50.428Z,10.3
2022-07-31T02:10:50.402Z,9.6
2022-07-31T02:12:50.235Z,10.0
2022-07-31T02:14:50.457Z,10.0
2022-07-31T02:16:49.622Z,10.3
2022-07-31T02:18:50.366Z,11.8
2022-07-31T02:20:49.773Z,10.3
2022-07-31T02:22:49.646Z,9.6
2022-07-31T02:24:49.826Z,9.6
2022-07-31T02:26:49.780Z,10.6
2022-07-31T02:28:49.643Z,11.3
2022-07-31T02:30:50.474Z,11.0
2022-07-31T02:32:49.645Z,11.2
2022-07-31T02:34:49.951Z,11.2
2022-07-31T02:36:50.194Z,11.3
2022-07-31T02:38:50.167Z,11.3
2022-07-31T02:40:49.940Z,11.1
2022-07-31T02:42:49.904Z,11.3
2022-07-31T02:44:49.891Z,11.3
2022-07-31T02:46:49.957Z,11.3
2022-07-31T02:48:49.863Z,10.7
2022-07-31T02:50:50.439Z,10.7
2022-07-31T02:52:50.402Z,10.0
2022-07-31T02:54:50.049Z,10.6
2022-07-31T02:56:50.071Z,10.1
2022-07-31T02:58:50.129Z,11.1
2022-07-31T03:00:50.247Z,11.1
2022-07-31T03:02:50.410Z,10.5
2022-07-31T03:04:49.743Z,10.4
2022-07-31T03:06:50.109Z,9.3
2022-07-31T03:08:50.050Z,9.3
2022-07-31T03:10:49.963Z,9.9
2022-07-31T03:12:50.061Z,9.5
2022-07-31T03:14:49.987Z,9.4
2022-07-31T03:16:50.339Z,9.4
2022-07-31T03:18:50.300Z,10.4
2022-07-31T03:20:50.194Z,10.0
2022-07-31T03:22:50.081Z,10.0
2022-07-31T03:24:49.616Z,10.6
2022-07-31T03:26:49.717Z,10.1
2022-07-31T03:28:49.717Z,10.1
2022-07-31T03:30:49.578Z,10.0
2022-07-31T03:32:49.603Z,9.8
2022-07-31T03:34:50.185Z,9.7
2022-07-31T03:36:50.414Z,9.4
2022-07-31T03:38:50.818Z,9.4
2022-07-31T03:40:49.734Z,10.2
2022-07-31T03:42:49.980Z,9.4
2022-07-31T03:44:49.990Z,9.7
2022-07-31T03:46:50.165Z,9.6
2022-07-31T03:48:50.062Z,9.2
2022-07-31T03:50:50.221Z,9.2
2022-07-31T03:52:50.372Z,9.2
2022-07-31T03:54:50.225Z,9.3
2022-07-31T03:56:49.567Z,9.6
2022-07-31T03:58:51.611Z,10.1
2022-07-31T04:00:50.341Z,10.1
2022-07-31T04:02:49.649Z,9.7
2022-07-31T04:04:49.592Z,10.1
2022-07-31T04:06:49.757Z,9.8
2022-07-31T04:08:49.803Z,8.9
2022-07-31T04:10:49.683Z,8.9
2022-07-31T04:12:49.682Z,9.4
2022-07-31T04:14:50.375Z,9.6
2022-07-31T04:16:49.643Z,9.6
2022-07-31T04:18:50.654Z,9.3
2022-07-31T04:20:50.007Z,9.3
2022-07-31T04:22:49.891Z,9.9
2022-07-31T04:24:50.260Z,8.9
2022-07-31T04:26:49.768Z,8.9
2022-07-31T04:28:49.614Z,8.9
2022-07-31T04:30:49.613Z,8.4
2022-07-31T04:32:49.705Z,8.4
2022-07-31T04:34:50.123Z,8.7
2022-07-31T04:36:50.261Z,8.7
2022-07-31T04:38:50.155Z,8.7
2022-07-31T04:40:49.995Z,8.2
2022-07-31T04:42:49.938Z,8.4
2022-07-31T04:44:49.997Z,8.0
2022-07-31T04:46:50.079Z,8.0
2022-07-31T04:48:50.172Z,8.0
2022-07-31T04:50:50.332Z,7.9
2022-07-31T04:52:50.077Z,8.8
2022-07-31T04:54:50.057Z,9.0
2022-07-31T04:56:50.284Z,9.0
2022-07-31T04:58:50.291Z,9.1
2022-07-31T05:00:50.268Z,9.0
2022-07-31T05:02:50.486Z,9.1
2022-07-31T05:04:52.484Z,9.1
2022-07-31T05:06:49.696Z,10.2
2022-07-31T05:08:49.659Z,9.6
2022-07-31T05:10:49.897Z,10.0
2022-07-31T05:12:49.913Z,10.0
2022-07-31T05:14:49.837Z,10.0
2022-07-31T05:16:50.216Z,9.9
2022-07-31T05:18:50.064Z,10.6
2022-07-31T05:20:49.967Z,9.6
2022-07-31T05:22:49.700Z,10.0
2022-07-31T05:24:50.491Z,10.0
2022-07-31T05:26:49.655Z,9.9
2022-07-31T05:28:49.805Z,10.2
2022-07-31T05:30:49.678Z,9.9
2022-07-31T05:32:50.497Z,10.5
2022-07-31T05:34:50.115Z,10.5
2022-07-31T05:36:50.181Z,10.7
2022-07-31T05:38:50.066Z,10.2
2022-07-31T05:40:49.880Z,10.7
2022-07-31T05:42:49.780Z,10.7
2022-07-31T05:44:50.017Z,10.0
2022-07-31T05:48:49.983Z,9.7
2022-07-31T05:50:50.445Z,9.5
2022-07-31T05:52:49.556Z,9.2
2022-07-31T05:54:49.749Z,9.2
2022-07-31T05:56:50.167Z,9.1
2022-07-31T05:58:49.927Z,9.6
2022-07-31T06:00:49.879Z,8.9
2022-07-31T06:02:49.856Z,9.1
2022-07-31T06:04:50.392Z,9.1
2022-07-31T06:06:50.518Z,9.5
2022-07-31T06:08:50.482Z,9.5
2022-07-31T06:10:50.514Z,8.5
2022-07-31T06:12:49.874Z,9.0
2022-07-31T06:14:49.768Z,9.0
2022-07-31T06:16:49.843Z,8.2
2022-07-31T06:18:49.818Z,9.4
2022-07-31T06:20:49.757Z,9.0
2022-07-31T06:22:49.694Z,9.0
2022-07-31T06:24:49.644Z,8.9
2022-07-31T06:26:49.577Z,8.9
2022-07-31T06:28:49.661Z,8.5
2022-07-31T06:30:49.663Z,8.5
2022-07-31T06:32:50.252Z,9.2
2022-07-31T06:34:50.457Z,8.7
2022-07-31T06:36:49.697Z,9.7
2022-07-31T06:38:49.585Z,9.4
2022-07-31T06:40:49.613Z,9.4
2022-07-31T06:42:50.494Z,10.1
2022-07-31T06:44:50.479Z,9.0
2022-07-31T06:46:49.730Z,9.5
2022-07-31T06:48:50.590Z,9.2
2022-07-31T06:50:49.848Z,9.2
2022-07-31T06:52:50.544Z,8.4
2022-07-31T06:54:50.465Z,8.4
2022-07-31T06:56:49.795Z,9.5
2022-07-31T06:58:49.877Z,9.0
2022-07-31T07:00:49.712Z,9.0
2022-07-31T07:02:49.886Z,8.3
2022-07-31T07:04:56.671Z,8.7
2022-07-31T07:06:50.159Z,8.7
2022-07-31T07:08:49.885Z,8.6
2022-07-31T07:10:49.825Z,8.8
2022-07-31T07:12:49.609Z,8.8
2022-07-31T07:14:49.839Z,8.3
2022-07-31T07:16:50.005Z,7.9
2022-07-31T07:18:49.843Z,7.8
2022-07-31T07:20:49.782Z,7.2
2022-07-31T07:22:49.783Z,7.2
2022-07-31T07:24:50.071Z,7.3
2022-07-31T07:26:50.136Z,7.3
2022-07-31T07:28:50.157Z,7.7
2022-07-31T07:30:49.918Z,7.7
2022-07-31T07:32:49.796Z,6.8
2022-07-31T07:34:59.337Z,6.7
2022-07-31T07:36:49.811Z,6.6
2022-07-31T07:38:49.798Z,6.6
2022-07-31T07:40:49.907Z,6.6
2022-07-31T07:42:49.612Z,6.2
2022-07-31T07:44:49.620Z,6.0
2022-07-31T07:46:49.925Z,6.0
2022-07-31T07:48:49.863Z,6.0
2022-07-31T07:50:50.055Z,6.5
2022-07-31T07:52:50.076Z,6.6
2022-07-31T07:54:50.045Z,5.9
2022-07-31T07:56:50.356Z,5.9
2022-07-31T07:58:50.384Z,5.9
2022-07-31T08:00:50.413Z,5.7
2022-07-31T08:03:02.607Z,5.6
2022-07-31T08:04:49.697Z,5.4
2022-07-31T08:06:49.839Z,5.4
2022-07-31T08:08:49.645Z,5.4
2022-07-31T08:10:50.504Z,4.9
2022-07-31T08:12:50.397Z,4.7
2022-07-31T08:14:50.266Z,5.1
2022-07-31T08:16:49.593Z,5.1
2022-07-31T08:18:50.448Z,5.2
2022-07-31T08:20:50.402Z,5.0
2022-07-31T08:22:50.359Z,4.6
2022-07-31T08:24:50.328Z,4.2
2022-07-31T08:26:50.543Z,4.2
2022-07-31T08:28:51.054Z,4.2
2022-07-31T08:30:50.130Z,4.2
2022-07-31T08:32:49.919Z,4.2
2022-07-31T08:34:50.169Z,4.2
2022-07-31T08:36:50.161Z,4.2
2022-07-31T08:38:50.062Z,4.3
2022-07-31T08:40:50.084Z,4.3
2022-07-31T08:42:50.178Z,3.9
2022-07-31T08:44:50.034Z,3.7
2022-07-31T08:46:50.372Z,3.8
2022-07-31T08:48:50.569Z,3.8
2022-07-31T08:50:53.458Z,4.0
2022-07-31T08:52:50.035Z,3.9
2022-07-31T08:54:49.971Z,3.6
2022-07-31T08:56:50.309Z,4.0
2022-07-31T08:58:50.170Z,4.0
2022-07-31T09:00:50.180Z,4.7
2022-07-31T09:02:50.263Z,4.1
2022-07-31T09:04:52.557Z,4.1
2022-07-31T09:06:50.061Z,4.1
2022-07-31T09:08:50.071Z,4.5
2022-07-31T09:10:50.437Z,4.6
2022-07-31T09:12:50.520Z,4.3
2022-07-31T09:14:49.623Z,3.6
2022-07-31T09:16:49.893Z,3.6
2022-07-31T09:18:50.024Z,3.7
2022-07-31T09:20:49.770Z,3.8
2022-07-31T09:22:49.824Z,5.8
2022-07-31T09:24:49.762Z,5.8
2022-07-31T09:26:50.130Z,4.0
2022-07-31T09:28:50.056Z,4.4
2022-07-31T09:30:55.896Z,3.8
2022-07-31T09:32:50.056Z,6.0
2022-07-31T09:34:50.507Z,6.0
2022-07-31T09:36:49.587Z,4.1
2022-07-31T09:38:49.689Z,4.2
2022-07-31T09:40:52.643Z,3.9
2022-07-31T09:42:55.182Z,3.9
2022-07-31T09:44:49.706Z,3.8
2022-07-31T09:46:50.050Z,3.6
2022-07-31T09:48:49.987Z,3.9
2022-07-31T09:50:49.962Z,3.6
2022-07-31T09:52:50.030Z,4.1
2022-07-31T09:54:49.906Z,4.1
2022-07-31T09:56:50.094Z,3.4
2022-07-31T09:58:50.131Z,3.4
2022-07-31T10:00:49.990Z,3.4
2022-07-31T10:02:50.202Z,3.3
2022-07-31T10:04:49.583Z,3.3
2022-07-31T10:06:49.696Z,4.1
2022-07-31T10:08:50.532Z,3.9
2022-07-31T10:10:50.427Z,3.2
2022-07-31T10:12:50.168Z,3.2
2022-07-31T10:14:50.099Z,3.2
2022-07-31T10:16:50.260Z,3.2
2022-07-31T10:18:50.231Z,3.2
2022-07-31T10:20:50.119Z,3.2
2022-07-31T10:22:50.403Z,3.4
2022-07-31T10:24:50.442Z,3.4
2022-07-31T10:27:00.125Z,3.1
2022-07-31T10:28:50.087Z,2.9
2022-07-31T10:30:50.264Z,2.9
2022-07-31T10:32:50.302Z,2.8
2022-07-31T10:34:49.751Z,2.8
2022-07-31T10:36:49.991Z,5.5
2022-07-31T10:38:49.889Z,3.5
2022-07-31T10:40:49.758Z,3.5
2022-07-31T10:42:49.787Z,2.7
2022-07-31T10:44:49.777Z,2.7
2022-07-31T10:46:49.860Z,3.2
2022-07-31T10:48:50.010Z,2.7
2022-07-31T10:50:50.216Z,2.7
2022-07-31T10:52:50.404Z,2.5
2022-07-31T10:54:50.283Z,2.5
2022-07-31T10:56:50.549Z,3.1
2022-07-31T10:58:50.514Z,2.9
2022-07-31T11:00:50.434Z,2.5
2022-07-31T11:02:50.150Z,2.5
2022-07-31T11:04:49.618Z,2.6
2022-07-31T11:06:50.094Z,2.7
2022-07-31T11:08:50.037Z,2.7
2022-07-31T11:10:49.897Z,2.4
2022-07-31T11:12:49.779Z,2.4
2022-07-31T11:14:50.027Z,2.8
2022-07-31T11:16:50.384Z,2.6
2022-07-31T11:18:50.460Z,2.2
2022-07-31T11:20:50.407Z,2.2
2022-07-31T11:22:50.354Z,2.4
2022-07-31T11:24:50.278Z,3.4
2022-07-31T11:26:49.584Z,2.1
2022-07-31T11:28:50.427Z,2.1
2022-07-31T11:30:50.195Z,2.1
2022-07-31T11:32:50.359Z,2.3
2022-07-31T11:34:49.596Z,2.0
2022-07-31T11:36:51.583Z,1.9
2022-07-31T11:38:49.742Z,2.9
2022-07-31T11:40:49.678Z,2.9
2022-07-31T11:42:59.974Z,2.1
2022-07-31T11:44:50.276Z,3.4
2022-07-31T11:46:50.472Z,2.1
2022-07-31T11:48:50.288Z,2.1
2022-07-31T11:50:49.611Z,1.8
2022-07-31T11:52:49.638Z,2.1
2022-07-31T11:54:49.556Z,3.0
2022-07-31T11:56:49.933Z,2.0
2022-07-31T11:58:49.994Z,2.0
2022-07-31T12:00:49.947Z,1.7
2022-07-31T12:02:50.052Z,1.7
2022-07-31T12:04:49.727Z,1.9
2022-07-31T12:06:49.984Z,1.8
2022-07-31T12:08:50.104Z,1.6
2022-07-31T12:10:50.088Z,1.6
2022-07-31T12:12:49.978Z,1.9
2022-07-31T12:14:50.084Z,1.7
2022-07-31T12:16:50.380Z,1.7
2022-07-31T12:18:50.298Z,1.7
2022-07-31T12:20:50.222Z,3.1
2022-07-31T12:22:50.067Z,1.7
2022-07-31T12:24:49.880Z,1.5
2022-07-31T12:26:49.825Z,1.5
2022-07-31T12:28:49.738Z,2.5
2022-07-31T12:30:49.741Z,1.7
2022-07-31T12:32:49.670Z,1.7
2022-07-31T12:34:50.266Z,1.7
2022-07-31T12:36:49.643Z,1.6
2022-07-31T12:38:49.594Z,1.6
2022-07-31T12:40:50.449Z,1.9
2022-07-31T12:42:49.733Z,1.7
2022-07-31T12:44:49.828Z,1.8
2022-07-31T12:46:49.818Z,1.8
2022-07-31T12:48:49.829Z,1.6
2022-07-31T12:50:50.163Z,1.8
2022-07-31T12:52:49.963Z,1.8
2022-07-31T12:54:49.886Z,2.9
2022-07-31T12:56:50.092Z,2.9
2022-07-31T12:58:49.901Z,2.0
2022-07-31T13:00:50.137Z,1.9
2022-07-31T13:02:50.151Z,1.8
2022-07-31T13:04:49.545Z,2.3
2022-07-31T13:06:49.808Z,2.3
2022-07-31T13:08:49.753Z,2.3
2022-07-31T13:10:49.816Z,2.5
2022-07-31T13:12:49.906Z,1.9
2022-07-31T13:14:49.847Z,1.9
2022-07-31T13:16:50.177Z,1.7
2022-07-31T13:18:50.219Z,1.7
2022-07-31T13:20:50.177Z,2.2
2022-07-31T13:22:50.046Z,1.6
2022-07-31T13:24:49.942Z,1.6
2022-07-31T13:26:50.236Z,2.4
2022-07-31T13:28:50.306Z,1.8
2022-07-31T13:30:53.289Z,2.0
2022-07-31T13:32:50.224Z,1.8
2022-07-31T13:34:49.554Z,2.1
2022-07-31T13:36:49.867Z,2.1
2022-07-31T13:38:49.857Z,2.3
2022-07-31T13:40:49.757Z,2.9
2022-07-31T13:42:49.574Z,2.5
2022-07-31T13:44:49.835Z,2.5
2022-07-31T13:46:49.912Z,2.1
2022-07-31T13:48:49.883Z,2.0
2022-07-31T13:50:50.089Z,2.3
2022-07-31T13:52:49.957Z,2.3
2022-07-31T13:54:49.825Z,1.8
2022-07-31T13:56:49.992Z,2.6
2022-07-31T13:58:49.854Z,2.4
2022-07-31T14:00:49.681Z,2.6
2022-07-31T14:02:49.999Z,2.6
2022-07-31T14:04:49.613Z,2.1
2022-07-31T14:06:49.811Z,3.3
2022-07-31T14:08:50.713Z,3.2
2022-07-31T14:10:50.158Z,2.1
2022-07-31T14:12:50.433Z,2.1
2022-07-31T14:14:50.320Z,3.1
2022-07-31T14:16:49.765Z,2.1
2022-07-31T14:18:50.512Z,2.1
2022-07-31T14:20:50.502Z,2.6
2022-07-31T14:22:50.346Z,2.6
2022-07-31T14:24:51.126Z,2.1
2022-07-31T14:26:49.600Z,2.0
2022-07-31T14:28:49.760Z,2.2
2022-07-31T14:30:49.750Z,1.9
2022-07-31T14:32:49.753Z,1.9
2022-07-31T14:34:50.076Z,2.1
2022-07-31T14:36:50.351Z,2.2
2022-07-31T14:38:50.295Z,2.1
2022-07-31T14:40:50.094Z,2.1
2022-07-31T14:42:50.090Z,2.1
2022-07-31T14:44:49.813Z,3.3
2022-07-31T14:46:50.429Z,2.0
2022-07-31T14:48:50.316Z,2.8
2022-07-31T14:50:50.434Z,2.8
2022-07-31T14:52:50.372Z,2.8
2022-07-31T14:54:50.377Z,2.8
2022-07-31T14:57:01.039Z,2.1
2022-07-31T14:58:57.176Z,2.0
2022-07-31T15:00:49.837Z,2.0
2022-07-31T15:02:49.862Z,2.0
2022-07-31T15:04:50.442Z,2.0
2022-07-31T15:06:55.617Z,2.2
2022-07-31T15:08:49.818Z,2.1
2022-07-31T15:10:49.615Z,2.1
2022-07-31T15:12:49.704Z,2.5
2022-07-31T15:14:49.825Z,2.5
2022-07-31T15:16:49.992Z,2.2
2022-07-31T15:18:51.592Z,2.4
2022-07-31T15:20:50.387Z,2.4
2022-07-31T15:22:50.289Z,1.9
2022-07-31T15:24:50.502Z,1.9
2022-07-31T15:26:49.917Z,2.1
2022-07-31T15:28:49.874Z,2.1
2022-07-31T15:30:49.763Z,2.1
2022-07-31T15:32:49.762Z,1.9
2022-07-31T15:34:50.366Z,2.2
2022-07-31T15:36:50.490Z,5.5
2022-07-31T15:38:50.453Z,5.0
2022-07-31T15:40:49.567Z,5.0
2022-07-31T15:42:50.709Z,3.1
2022-07-31T15:44:49.760Z,1.9
2022-07-31T15:46:50.040Z,1.9
2022-07-31T15:48:50.064Z,2.9
2022-07-31T15:50:50.167Z,2.9
2022-07-31T15:52:50.238Z,3.1
2022-07-31T15:54:52.049Z,2.8
2022-07-31T15:56:49.987Z,3.3
2022-07-31T15:58:53.514Z,3.3
2022-07-31T16:00:50.099Z,1.7
2022-07-31T16:02:50.285Z,4.7
2022-07-31T16:04:52.040Z,1.7
2022-07-31T16:06:50.604Z,1.7
2022-07-31T16:08:49.961Z,1.7
2022-07-31T16:10:54.077Z,1.9
2022-07-31T16:12:50.141Z,1.8
2022-07-31T16:14:50.030Z,2.0
2022-07-31T16:16:49.921Z,2.0
2022-07-31T16:18:50.291Z,1.7
2022-07-31T16:20:50.207Z,1.8
2022-07-31T16:22:53.996Z,1.8
2022-07-31T16:24:50.344Z,1.7
2022-07-31T16:26:50.291Z,1.7
2022-07-31T16:28:53.958Z,2.0
2022-07-31T16:30:50.302Z,1.9
2022-07-31T16:32:50.300Z,1.8
2022-07-31T16:34:52.741Z,1.8
2022-07-31T16:36:49.852Z,1.8
2022-07-31T16:39:11.118Z,1.9
2022-07-31T16:40:53.363Z,1.9
2022-07-31T16:42:50.531Z,2.0
2022-07-31T16:44:50.418Z,2.0
2022-07-31T16:46:54.353Z,2.0
2022-07-31T16:48:50.017Z,2.0
2022-07-31T16:50:53.136Z,1.9
2022-07-31T16:52:54.364Z,1.9
2022-07-31T16:54:50.262Z,1.8
2022-07-31T16:56:50.465Z,1.8
2022-07-31T16:58:54.287Z,2.2
2022-07-31T17:00:50.336Z,2.0
2022-07-31T17:02:50.518Z,3.2
2022-07-31T17:04:53.751Z,2.0
2022-07-31T17:06:50.440Z,2.0
2022-07-31T17:08:50.522Z,2.2
2022-07-31T17:10:54.009Z,1.8
2022-07-31T17:12:49.792Z,2.0
2022-07-31T17:14:49.836Z,2.0
2022-07-31T17:16:50.020Z,2.0
2022-07-31T17:18:52.580Z,2.0
2022-07-31T17:20:50.166Z,1.9
2022-07-31T17:22:52.820Z,1.8
2022-07-31T17:24:50.640Z,1.8
2022-07-31T17:26:49.805Z,2.3
2022-07-31T17:28:49.616Z,3.7
2022-07-31T17:30:49.717Z,2.3
2022-07-31T17:32:49.593Z,2.2
2022-07-31T17:34:49.926Z,2.2
2022-07-31T17:36:50.258Z,2.0
2022-07-31T17:38:50.381Z,1.9
2022-07-31T17:40:50.310Z,4.1
2022-07-31T17:42:50.325Z,2.1
2022-07-31T17:44:53.309Z,2.1
2022-07-31T17:46:49.954Z,2.0
2022-07-31T17:48:49.842Z,2.1
2022-07-31T17:50:53.874Z,6.1
2022-07-31T17:52:50.322Z,6.1
2022-07-31T17:54:50.443Z,4.7
2022-07-31T17:56:51.988Z,8.0
2022-07-31T17:58:50.434Z,6.8
2022-07-31T18:00:50.303Z,2.4
2022-07-31T18:02:50.394Z,2.4
2022-07-31T18:04:49.742Z,2.1
2022-07-31T18:06:54.177Z,2.1
2022-07-31T18:08:50.036Z,3.6
2022-07-31T18:10:53.814Z,3.1
2022-07-31T18:12:57.054Z,3.0
2022-07-31T18:14:50.219Z,3.0
2022-07-31T18:16:49.558Z,6.0
2022-07-31T18:18:54.274Z,2.9
2022-07-31T18:20:50.017Z,3.5
2022-07-31T18:22:50.156Z,2.7
2022-07-31T18:24:50.230Z,2.7
2022-07-31T18:26:49.715Z,2.8
2022-07-31T18:28:49.834Z,3.1
2022-07-31T18:30:49.770Z,2.8
2022-07-31T18:32:49.801Z,2.8
2022-07-31T18:34:50.319Z,2.6
2022-07-31T18:36:52.878Z,3.9
2022-07-31T18:38:50.226Z,3.5
2022-07-31T18:40:50.255Z,3.3
2022-07-31T18:42:50.054Z,3.3
2022-07-31T18:44:50.095Z,3.2
2022-07-31T18:46:50.427Z,3.7
2022-07-31T18:48:55.010Z,6.0
2022-07-31T18:50:57.812Z,4.1
2022-07-31T18:52:50.181Z,4.1
2022-07-31T18:54:54.104Z,5.5
2022-07-31T18:56:49.751Z,4.4
2022-07-31T18:58:49.604Z,5.6
2022-07-31T19:00:54.392Z,6.6
2022-07-31T19:02:49.582Z,6.6
2022-07-31T19:04:50.118Z,3.2
2022-07-31T19:06:54.160Z,3.2
2022-07-31T19:08:49.758Z,3.2
2022-07-31T19:10:49.834Z,3.2
2022-07-31T19:12:49.794Z,3.3
2022-07-31T19:14:49.700Z,2.9
2022-07-31T19:16:49.842Z,2.9
2022-07-31T19:18:50.285Z,3.4
2022-07-31T19:20:57.583Z,3.4
2022-07-31T19:22:50.537Z,3.0
2022-07-31T19:24:50.496Z,2.9
2022-07-31T19:26:49.869Z,3.1
2022-07-31T19:28:49.741Z,3.0
2022-07-31T19:30:49.863Z,3.0
2022-07-31T19:32:49.844Z,3.0
2022-07-31T19:34:50.222Z,3.1
2022-07-31T19:36:49.797Z,3.5
2022-07-31T19:38:49.756Z,3.2
2022-07-31T19:40:49.645Z,3.2
2022-07-31T19:42:49.739Z,3.1
2022-07-31T19:44:49.615Z,3.1
2022-07-31T19:46:49.811Z,3.1
2022-07-31T19:48:50.045Z,3.2
2022-07-31T19:50:50.432Z,3.2
2022-07-31T19:52:49.747Z,3.3
2022-07-31T19:54:49.763Z,2.8
2022-07-31T19:56:49.955Z,3.5
2022-07-31T19:58:49.990Z,3.5
2022-07-31T20:00:50.065Z,3.2
2022-07-31T20:02:50.108Z,3.6
2022-07-31T20:04:49.756Z,4.7
2022-07-31T20:06:50.161Z,3.7
2022-07-31T20:08:50.259Z,3.7
2022-07-31T20:10:50.359Z,3.2
2022-07-31T20:12:49.624Z,3.2
2022-07-31T20:14:49.731Z,2.9
2022-07-31T20:16:49.941Z,3.8
2022-07-31T20:18:49.972Z,3.8
2022-07-31T20:20:50.981Z,3.1
2022-07-31T20:22:50.166Z,2.7
2022-07-31T20:24:49.984Z,7.2
2022-07-31T20:26:50.225Z,7.2
2022-07-31T20:28:50.166Z,3.6
2022-07-31T20:30:50.534Z,4.2
2022-07-31T20:32:49.754Z,5.3
2022-07-31T20:34:49.677Z,5.3
2022-07-31T20:36:49.669Z,3.9
2022-07-31T20:38:49.655Z,3.9
2022-07-31T20:40:54.049Z,3.2
2022-07-31T20:42:49.868Z,3.0
2022-07-31T20:44:49.820Z,3.0
2022-07-31T20:46:50.159Z,3.1
2022-07-31T20:48:50.019Z,3.1
2022-07-31T20:50:50.491Z,3.5
2022-07-31T20:52:50.324Z,3.5
2022-07-31T20:54:50.186Z,3.4
2022-07-31T20:56:50.061Z,3.5
2022-07-31T20:58:51.875Z,3.5
2022-07-31T21:00:49.796Z,3.1
2022-07-31T21:02:49.906Z,3.6
2022-07-31T21:04:50.151Z,3.9
2022-07-31T21:06:49.985Z,3.9
2022-07-31T21:08:49.563Z,3.8
2022-07-31T21:10:50.363Z,3.5
2022-07-31T21:12:49.930Z,3.9
2022-07-31T21:14:49.725Z,3.9
2022-07-31T21:16:49.964Z,3.3
2022-07-31T21:18:49.812Z,3.7
2022-07-31T21:20:53.206Z,3.8
2022-07-31T21:22:50.493Z,3.5
2022-07-31T21:24:50.427Z,3.4
2022-07-31T21:26:50.996Z,3.4
2022-07-31T21:28:50.340Z,3.4
2022-07-31T21:30:50.196Z,3.4
2022-07-31T21:32:50.046Z,3.7
2022-07-31T21:34:50.515Z,3.7
2022-07-31T21:36:50.479Z,3.7
2022-07-31T21:38:50.174Z,3.4
2022-07-31T21:40:49.791Z,3.4
2022-07-31T21:42:51.830Z,3.3
2022-07-31T21:44:49.734Z,3.3
2022-07-31T21:46:51.634Z,3.5
2022-07-31T21:48:49.797Z,3.6
2022-07-31T21:50:50.146Z,3.7
2022-07-31T21:52:50.054Z,3.7
2022-07-31T21:54:49.656Z,3.7
2022-07-31T21:56:49.795Z,3.6
2022-07-31T21:58:50.440Z,3.6
2022-07-31T22:00:50.205Z,3.8
2022-07-31T22:02:49.851Z,3.8
2022-07-31T22:04:49.870Z,3.9
2022-07-31T22:06:49.925Z,3.7
2022-07-31T22:08:49.638Z,4.3
2022-07-31T22:10:50.328Z,3.7
2022-07-31T22:12:50.248Z,3.7
2022-07-31T22:14:49.811Z,4.2
2022-07-31T22:16:49.764Z,5.3
2022-07-31T22:18:50.375Z,3.9
2022-07-31T22:20:49.963Z,3.9
2022-07-31T22:22:49.762Z,3.8
2022-07-31T22:24:50.419Z,3.3
2022-07-31T22:26:50.247Z,3.3
2022-07-31T22:28:50.099Z,3.9
2022-07-31T22:30:49.676Z,3.9
2022-07-31T22:32:53.279Z,4.3
2022-07-31T22:34:49.684Z,3.6
2022-07-31T22:36:49.682Z,4.1
2022-07-31T22:38:50.478Z,4.0
2022-07-31T22:40:49.975Z,4.1
2022-07-31T22:42:55.986Z,4.1
2022-07-31T22:44:49.793Z,3.8
2022-07-31T22:46:49.923Z,3.8
2022-07-31T22:48:50.468Z,3.8
2022-07-31T22:50:50.467Z,3.7
2022-07-31T22:52:50.112Z,3.7
2022-07-31T22:54:49.739Z,4.0
2022-07-31T22:56:49.898Z,4.2
2022-07-31T22:58:50.478Z,4.0
2022-07-31T23:00:50.426Z,4.1
2022-07-31T23:02:50.175Z,4.1
2022-07-31T23:04:49.598Z,4.3
2022-07-31T23:06:49.573Z,5.2
2022-07-31T23:08:50.305Z,4.1
2022-07-31T23:10:49.777Z,4.1
2022-07-31T23:12:49.712Z,4.1
2022-07-31T23:14:50.180Z,3.9
2022-07-31T23:16:50.202Z,4.1
2022-07-31T23:18:49.955Z,4.3
2022-07-31T23:20:50.499Z,4.3
2022-07-31T23:22:50.106Z,4.2
2022-07-31T23:24:49.787Z,4.0
2022-07-31T23:26:49.556Z,4.8
2022-07-31T23:28:50.334Z,4.7
2022-07-31T23:30:50.036Z,4.7
2022-07-31T23:32:50.399Z,4.4
2022-07-31T23:34:50.415Z,4.3
2022-07-31T23:36:49.579Z,4.9
2022-07-31T23:38:50.340Z,4.9
2022-07-31T23:40:50.068Z,4.3
2022-07-31T23:42:49.630Z,4.9
2022-07-31T23:44:50.472Z,4.9
2022-07-31T23:46:50.236Z,4.4
2022-07-31T23:48:50.143Z,4.4
2022-07-31T23:50:50.294Z,4.5
2022-07-31T23:52:50.080Z,4.3
2022-07-31T23:54:49.762Z,4.7
2022-07-31T23:56:49.659Z,4.1
2022-07-31T23:58:50.408Z,4.1
